sensor_id;sensor_type;location;lat;lon;timestamp;temperature;humidity
38380;DHT22;38377;47.418;18.882;2022-10-17T00:01:05;8.80;99.90
38380;DHT22;38377;47.418;18.882;2022-10-17T00:03:31;8.80;99.90
38380;DHT22;38377;47.418;18.882;2022-10-17T00:05:57;8.80;99.90
38380;DHT22;38377;47.418;18.882;2022-10-17T00:08:22;8.80;99.90
38380;DHT22;38377;47.418;18.882;2022-10-17T00:10:57;8.70;99.90
38380;DHT22;38377;47.418;18.882;2022-10-17T00:13:23;8.70;99.90
38380;DHT22;38377;47.418;18.882;2022-10-17T00:15:49;8.60;99.90
38380;DHT22;38377;47.418;18.882;2022-10-17T00:18:15;8.70;99.90
38380;DHT22;38377;47.418;18.882;2022-10-17T00:20:40;8.60;99.90
38380;DHT22;38377;47.418;18.882;2022-10-17T00:23:06;8.60;99.90
38380;DHT22;38377;47.418;18.882;2022-10-17T00:25:32;8.60;99.90
38380;DHT22;38377;47.418;18.882;2022-10-17T00:27:57;8.60;99.90
38380;DHT22;38377;47.418;18.882;2022-10-17T00:30:23;8.60;99.90
38380;DHT22;38377;47.418;18.882;2022-10-17T00:32:49;8.70;99.90
38380;DHT22;38377;47.418;18.882;2022-10-17T00:35:14;8.70;99.90
38380;DHT22;38377;47.418;18.882;2022-10-17T00:37:40;8.60;99.90
38380;DHT22;38377;47.418;18.882;2022-10-17T00:40:06;8.60;99.90
38380;DHT22;38377;47.418;18.882;2022-10-17T00:42:32;8.60;99.90
38380;DHT22;38377;47.418;18.882;2022-10-17T00:45:26;8.60;99.90
38380;DHT22;38377;47.418;18.882;2022-10-17T00:48:00;8.60;99.90
38380;DHT22;38377;47.418;18.882;2022-10-17T00:50:28;8.60;99.90
38380;DHT22;38377;47.418;18.882;2022-10-17T00:52:58;8.50;99.90
38380;DHT22;38377;47.418;18.882;2022-10-17T00:55:32;8.60;99.90
38380;DHT22;38377;47.418;18.882;2022-10-17T00:58:02;8.50;99.90
38380;DHT22;38377;47.418;18.882;2022-10-17T01:00:29;8.50;99.90
38380;DHT22;38377;47.418;18.882;2022-10-17T01:02:55;8.40;99.90
38380;DHT22;38377;47.418;18.882;2022-10-17T01:05:21;8.40;99.90
38380;DHT22;38377;47.418;18.882;2022-10-17T01:07:48;8.30;99.90
38380;DHT22;38377;47.418;18.882;2022-10-17T01:10:15;8.30;99.90
38380;DHT22;38377;47.418;18.882;2022-10-17T01:13:36;8.30;99.90
38380;DHT22;38377;47.418;18.882;2022-10-17T01:16:03;8.30;99.90
38380;DHT22;38377;47.418;18.882;2022-10-17T01:22:22;8.20;99.90
38380;DHT22;38377;47.418;18.882;2022-10-17T01:24:45;8.30;99.90
38380;DHT22;38377;47.418;18.882;2022-10-17T01:27:22;8.20;99.90
38380;DHT22;38377;47.418;18.882;2022-10-17T01:32:31;8.30;99.90
38380;DHT22;38377;47.418;18.882;2022-10-17T01:35:11;8.30;99.90
38380;DHT22;38377;47.418;18.882;2022-10-17T01:37:47;8.30;99.90
38380;DHT22;38377;47.418;18.882;2022-10-17T01:43:12;8.30;99.90
38380;DHT22;38377;47.418;18.882;2022-10-17T01:46:02;8.20;99.90
38380;DHT22;38377;47.418;18.882;2022-10-17T01:48:36;8.20;99.90
38380;DHT22;38377;47.418;18.882;2022-10-17T01:56:40;8.10;99.90
38380;DHT22;38377;47.418;18.882;2022-10-17T01:59:19;8.10;99.90
38380;DHT22;38377;47.418;18.882;2022-10-17T02:01:49;8.00;99.90
38380;DHT22;38377;47.418;18.882;2022-10-17T02:04:16;8.00;99.90
38380;DHT22;38377;47.418;18.882;2022-10-17T02:06:41;8.00;99.90
38380;DHT22;38377;47.418;18.882;2022-10-17T02:09:24;8.00;99.90
38380;DHT22;38377;47.418;18.882;2022-10-17T02:26:08;7.90;99.90
38380;DHT22;38377;47.418;18.882;2022-10-17T02:31:50;7.80;99.90
38380;DHT22;38377;47.418;18.882;2022-10-17T02:36:54;7.80;99.90
38380;DHT22;38377;47.418;18.882;2022-10-17T02:39:22;7.80;99.90
38380;DHT22;38377;47.418;18.882;2022-10-17T02:41:50;7.80;99.90
38380;DHT22;38377;47.418;18.882;2022-10-17T02:44:17;7.80;99.90
38380;DHT22;38377;47.418;18.882;2022-10-17T02:46:48;7.80;99.90
38380;DHT22;38377;47.418;18.882;2022-10-17T02:49:21;7.80;99.90
38380;DHT22;38377;47.418;18.882;2022-10-17T02:52:11;7.90;99.90
38380;DHT22;38377;47.418;18.882;2022-10-17T02:55:11;7.90;99.90
38380;DHT22;38377;47.418;18.882;2022-10-17T03:00:13;7.90;99.90
38380;DHT22;38377;47.418;18.882;2022-10-17T03:02:45;7.90;99.90
38380;DHT22;38377;47.418;18.882;2022-10-17T03:05:13;7.90;99.90
38380;DHT22;38377;47.418;18.882;2022-10-17T03:07:39;7.90;99.90
38380;DHT22;38377;47.418;18.882;2022-10-17T03:10:05;7.80;99.90
38380;DHT22;38377;47.418;18.882;2022-10-17T03:12:31;7.70;99.90
38380;DHT22;38377;47.418;18.882;2022-10-17T03:14:57;7.70;99.90
38380;DHT22;38377;47.418;18.882;2022-10-17T03:17:23;7.70;99.90
38380;DHT22;38377;47.418;18.882;2022-10-17T03:19:48;7.70;99.90
38380;DHT22;38377;47.418;18.882;2022-10-17T03:22:14;7.70;99.90
38380;DHT22;38377;47.418;18.882;2022-10-17T03:24:40;7.70;99.90
38380;DHT22;38377;47.418;18.882;2022-10-17T03:27:05;7.70;99.90
38380;DHT22;38377;47.418;18.882;2022-10-17T03:29:31;7.70;99.90
38380;DHT22;38377;47.418;18.882;2022-10-17T03:31:57;7.80;99.90
38380;DHT22;38377;47.418;18.882;2022-10-17T03:34:22;7.80;99.90
38380;DHT22;38377;47.418;18.882;2022-10-17T03:36:48;7.80;99.90
38380;DHT22;38377;47.418;18.882;2022-10-17T03:39:13;7.80;99.90
38380;DHT22;38377;47.418;18.882;2022-10-17T03:41:39;7.80;99.90
38380;DHT22;38377;47.418;18.882;2022-10-17T03:44:05;7.70;99.90
38380;DHT22;38377;47.418;18.882;2022-10-17T03:46:30;7.80;99.90
38380;DHT22;38377;47.418;18.882;2022-10-17T03:48:56;7.80;99.90
38380;DHT22;38377;47.418;18.882;2022-10-17T03:51:22;7.80;99.90
38380;DHT22;38377;47.418;18.882;2022-10-17T03:53:48;7.70;99.90
38380;DHT22;38377;47.418;18.882;2022-10-17T03:56:19;7.70;99.90
38380;DHT22;38377;47.418;18.882;2022-10-17T03:58:45;7.60;99.90
38380;DHT22;38377;47.418;18.882;2022-10-17T04:01:12;7.50;99.90
38380;DHT22;38377;47.418;18.882;2022-10-17T04:03:38;7.50;99.90
38380;DHT22;38377;47.418;18.882;2022-10-17T04:06:05;7.60;99.90
38380;DHT22;38377;47.418;18.882;2022-10-17T04:08:31;7.50;99.90
38380;DHT22;38377;47.418;18.882;2022-10-17T04:10:58;7.60;99.90
38380;DHT22;38377;47.418;18.882;2022-10-17T04:13:24;7.60;99.90
38380;DHT22;38377;47.418;18.882;2022-10-17T04:15:58;7.60;99.90
38380;DHT22;38377;47.418;18.882;2022-10-17T04:18:24;7.50;99.90
38380;DHT22;38377;47.418;18.882;2022-10-17T04:20:50;7.50;99.90
38380;DHT22;38377;47.418;18.882;2022-10-17T04:23:16;7.60;99.90
38380;DHT22;38377;47.418;18.882;2022-10-17T04:25:42;7.60;99.90
38380;DHT22;38377;47.418;18.882;2022-10-17T04:28:07;7.70;99.90
38380;DHT22;38377;47.418;18.882;2022-10-17T04:30:33;7.60;99.90
38380;DHT22;38377;47.418;18.882;2022-10-17T04:32:59;7.60;99.90
38380;DHT22;38377;47.418;18.882;2022-10-17T04:35:24;7.60;99.90
38380;DHT22;38377;47.418;18.882;2022-10-17T04:37:50;7.60;99.90
38380;DHT22;38377;47.418;18.882;2022-10-17T04:40:16;7.50;99.90
38380;DHT22;38377;47.418;18.882;2022-10-17T04:42:41;7.50;99.90
38380;DHT22;38377;47.418;18.882;2022-10-17T04:45:07;7.50;99.90
38380;DHT22;38377;47.418;18.882;2022-10-17T04:47:34;7.50;99.90
38380;DHT22;38377;47.418;18.882;2022-10-17T04:49:59;7.50;99.90
38380;DHT22;38377;47.418;18.882;2022-10-17T04:52:25;7.60;99.90
38380;DHT22;38377;47.418;18.882;2022-10-17T04:54:51;7.50;99.90
38380;DHT22;38377;47.418;18.882;2022-10-17T04:57:17;7.50;99.90
38380;DHT22;38377;47.418;18.882;2022-10-17T04:59:44;7.60;99.90
38380;DHT22;38377;47.418;18.882;2022-10-17T05:02:10;7.50;99.90
38380;DHT22;38377;47.418;18.882;2022-10-17T05:04:36;7.60;99.90
38380;DHT22;38377;47.418;18.882;2022-10-17T05:07:02;7.60;99.90
38380;DHT22;38377;47.418;18.882;2022-10-17T05:09:28;7.60;99.90
38380;DHT22;38377;47.418;18.882;2022-10-17T05:11:54;7.60;99.90
38380;DHT22;38377;47.418;18.882;2022-10-17T05:14:20;7.60;99.90
38380;DHT22;38377;47.418;18.882;2022-10-17T05:16:45;7.60;99.90
38380;DHT22;38377;47.418;18.882;2022-10-17T05:19:11;7.60;99.90
38380;DHT22;38377;47.418;18.882;2022-10-17T05:21:37;7.70;99.90
38380;DHT22;38377;47.418;18.882;2022-10-17T05:24:10;7.70;99.90
38380;DHT22;38377;47.418;18.882;2022-10-17T05:26:37;7.70;99.90
38380;DHT22;38377;47.418;18.882;2022-10-17T05:29:03;7.60;99.90
38380;DHT22;38377;47.418;18.882;2022-10-17T05:31:30;7.70;99.90
38380;DHT22;38377;47.418;18.882;2022-10-17T05:34:02;7.70;99.90
38380;DHT22;38377;47.418;18.882;2022-10-17T05:36:28;7.70;99.90
38380;DHT22;38377;47.418;18.882;2022-10-17T05:38:54;7.80;99.90
38380;DHT22;38377;47.418;18.882;2022-10-17T05:41:20;7.90;99.90
38380;DHT22;38377;47.418;18.882;2022-10-17T05:43:46;8.00;99.90
38380;DHT22;38377;47.418;18.882;2022-10-17T05:46:11;8.00;99.90
38380;DHT22;38377;47.418;18.882;2022-10-17T05:48:37;8.10;99.90
38380;DHT22;38377;47.418;18.882;2022-10-17T05:51:07;8.10;99.90
38380;DHT22;38377;47.418;18.882;2022-10-17T05:53:35;8.30;99.90
38380;DHT22;38377;47.418;18.882;2022-10-17T05:56:03;8.60;99.90
38380;DHT22;38377;47.418;18.882;2022-10-17T05:58:30;8.80;99.90
38380;DHT22;38377;47.418;18.882;2022-10-17T06:01:04;9.00;99.90
38380;DHT22;38377;47.418;18.882;2022-10-17T06:03:31;9.40;99.90
38380;DHT22;38377;47.418;18.882;2022-10-17T06:06:05;9.60;99.90
38380;DHT22;38377;47.418;18.882;2022-10-17T06:08:31;9.90;99.90
38380;DHT22;38377;47.418;18.882;2022-10-17T06:10:57;10.10;99.90
38380;DHT22;38377;47.418;18.882;2022-10-17T06:13:22;10.40;99.90
38380;DHT22;38377;47.418;18.882;2022-10-17T06:15:48;10.40;99.90
38380;DHT22;38377;47.418;18.882;2022-10-17T06:18:14;10.60;99.90
38380;DHT22;38377;47.418;18.882;2022-10-17T06:20:39;10.80;99.90
38380;DHT22;38377;47.418;18.882;2022-10-17T06:23:05;11.10;99.90
38380;DHT22;38377;47.418;18.882;2022-10-17T06:25:31;11.30;99.90
38380;DHT22;38377;47.418;18.882;2022-10-17T06:27:57;11.40;99.90
38380;DHT22;38377;47.418;18.882;2022-10-17T06:30:23;11.60;99.90
38380;DHT22;38377;47.418;18.882;2022-10-17T06:32:50;11.80;99.90
38380;DHT22;38377;47.418;18.882;2022-10-17T06:35:15;12.00;99.90
38380;DHT22;38377;47.418;18.882;2022-10-17T06:37:41;12.10;99.90
38380;DHT22;38377;47.418;18.882;2022-10-17T06:40:07;12.30;99.90
38380;DHT22;38377;47.418;18.882;2022-10-17T06:42:34;12.40;99.90
38380;DHT22;38377;47.418;18.882;2022-10-17T06:45:00;12.60;99.90
38380;DHT22;38377;47.418;18.882;2022-10-17T06:47:26;12.70;99.90
38380;DHT22;38377;47.418;18.882;2022-10-17T06:49:51;12.80;99.90
38380;DHT22;38377;47.418;18.882;2022-10-17T06:52:17;13.00;99.90
38380;DHT22;38377;47.418;18.882;2022-10-17T06:54:43;13.20;99.90
38380;DHT22;38377;47.418;18.882;2022-10-17T06:57:09;13.30;99.90
38380;DHT22;38377;47.418;18.882;2022-10-17T06:59:35;13.40;99.90
38380;DHT22;38377;47.418;18.882;2022-10-17T07:02:01;13.60;99.90
38380;DHT22;38377;47.418;18.882;2022-10-17T07:04:27;13.70;99.90
38380;DHT22;38377;47.418;18.882;2022-10-17T07:06:53;13.90;99.90
38380;DHT22;38377;47.418;18.882;2022-10-17T07:09:19;14.00;99.90
38380;DHT22;38377;47.418;18.882;2022-10-17T07:11:45;14.10;99.90
38380;DHT22;38377;47.418;18.882;2022-10-17T07:14:11;14.20;99.90
38380;DHT22;38377;47.418;18.882;2022-10-17T07:16:36;14.30;99.90
38380;DHT22;38377;47.418;18.882;2022-10-17T07:19:02;14.40;99.90
38380;DHT22;38377;47.418;18.882;2022-10-17T07:21:28;14.50;99.90
38380;DHT22;38377;47.418;18.882;2022-10-17T07:23:53;14.60;99.90
38380;DHT22;38377;47.418;18.882;2022-10-17T07:26:20;14.70;99.90
38380;DHT22;38377;47.418;18.882;2022-10-17T07:28:49;14.90;99.90
38380;DHT22;38377;47.418;18.882;2022-10-17T07:31:17;14.90;99.90
38380;DHT22;38377;47.418;18.882;2022-10-17T07:33:44;15.00;99.90
38380;DHT22;38377;47.418;18.882;2022-10-17T07:36:11;15.10;99.90
38380;DHT22;38377;47.418;18.882;2022-10-17T07:38:37;15.20;99.90
38380;DHT22;38377;47.418;18.882;2022-10-17T07:41:05;15.30;99.90
38380;DHT22;38377;47.418;18.882;2022-10-17T07:43:31;15.30;99.90
38380;DHT22;38377;47.418;18.882;2022-10-17T07:45:57;15.40;99.90
38380;DHT22;38377;47.418;18.882;2022-10-17T07:48:23;15.50;99.60
38380;DHT22;38377;47.418;18.882;2022-10-17T07:50:49;15.60;99.20
38380;DHT22;38377;47.418;18.882;2022-10-17T07:53:16;15.70;99.90
38380;DHT22;38377;47.418;18.882;2022-10-17T07:55:42;15.70;99.20
38380;DHT22;38377;47.418;18.882;2022-10-17T07:58:11;15.80;98.00
38380;DHT22;38377;47.418;18.882;2022-10-17T08:00:37;15.90;99.00
38380;DHT22;38377;47.418;18.882;2022-10-17T08:03:03;15.90;98.40
38380;DHT22;38377;47.418;18.882;2022-10-17T08:05:30;15.90;98.50
38380;DHT22;38377;47.418;18.882;2022-10-17T08:07:56;16.10;98.10
38380;DHT22;38377;47.418;18.882;2022-10-17T08:10:22;16.10;97.80
38380;DHT22;38377;47.418;18.882;2022-10-17T08:12:52;16.00;98.60
38380;DHT22;38377;47.418;18.882;2022-10-17T08:15:18;16.20;98.10
38380;DHT22;38377;47.418;18.882;2022-10-17T08:17:44;16.30;96.30
38380;DHT22;38377;47.418;18.882;2022-10-17T08:20:10;16.30;96.80
38380;DHT22;38377;47.418;18.882;2022-10-17T08:22:36;16.30;96.30
38380;DHT22;38377;47.418;18.882;2022-10-17T08:25:02;16.30;97.50
38380;DHT22;38377;47.418;18.882;2022-10-17T08:27:28;16.40;96.50
38380;DHT22;38377;47.418;18.882;2022-10-17T08:29:53;16.50;96.30
38380;DHT22;38377;47.418;18.882;2022-10-17T08:32:20;16.50;96.40
38380;DHT22;38377;47.418;18.882;2022-10-17T08:34:46;16.60;96.20
38380;DHT22;38377;47.418;18.882;2022-10-17T08:37:13;16.80;95.50
38380;DHT22;38377;47.418;18.882;2022-10-17T08:39:40;16.80;95.40
38380;DHT22;38377;47.418;18.882;2022-10-17T08:42:16;16.80;94.70
38380;DHT22;38377;47.418;18.882;2022-10-17T08:47:43;16.90;95.60
38380;DHT22;38377;47.418;18.882;2022-10-17T08:55:54;17.00;94.80
38380;DHT22;38377;47.418;18.882;2022-10-17T08:58:32;17.10;94.30
38380;DHT22;38377;47.418;18.882;2022-10-17T09:01:13;17.00;94.20
38380;DHT22;38377;47.418;18.882;2022-10-17T09:06:27;17.30;94.60
38380;DHT22;38377;47.418;18.882;2022-10-17T09:19:35;17.40;93.80
38380;DHT22;38377;47.418;18.882;2022-10-17T09:22:15;17.60;92.30
38380;DHT22;38377;47.418;18.882;2022-10-17T09:24:51;17.70;92.40
38380;DHT22;38377;47.418;18.882;2022-10-17T09:27:24;17.80;92.90
38380;DHT22;38377;47.418;18.882;2022-10-17T09:29:54;17.90;94.10
38380;DHT22;38377;47.418;18.882;2022-10-17T09:32:24;18.00;92.50
38380;DHT22;38377;47.418;18.882;2022-10-17T09:34:54;18.10;92.00
38380;DHT22;38377;47.418;18.882;2022-10-17T09:37:28;18.30;92.50
38380;DHT22;38377;47.418;18.882;2022-10-17T09:39:55;18.30;92.40
38380;DHT22;38377;47.418;18.882;2022-10-17T09:42:25;18.20;92.80
38380;DHT22;38377;47.418;18.882;2022-10-17T09:44:54;18.20;91.30
38380;DHT22;38377;47.418;18.882;2022-10-17T09:50:32;18.40;90.80
38380;DHT22;38377;47.418;18.882;2022-10-17T09:53:25;18.50;91.40
38380;DHT22;38377;47.418;18.882;2022-10-17T09:55:54;18.40;91.00
38380;DHT22;38377;47.418;18.882;2022-10-17T09:58:21;18.60;91.10
38380;DHT22;38377;47.418;18.882;2022-10-17T10:00:47;18.60;90.40
38380;DHT22;38377;47.418;18.882;2022-10-17T10:03:20;18.60;89.40
38380;DHT22;38377;47.418;18.882;2022-10-17T10:08:30;18.70;89.10
38380;DHT22;38377;47.418;18.882;2022-10-17T10:11:01;18.80;89.20
38380;DHT22;38377;47.418;18.882;2022-10-17T10:13:29;18.80;88.60
38380;DHT22;38377;47.418;18.882;2022-10-17T10:16:13;18.80;88.20
38380;DHT22;38377;47.418;18.882;2022-10-17T10:18:39;18.90;88.60
38380;DHT22;38377;47.418;18.882;2022-10-17T10:23:31;18.90;87.40
38380;DHT22;38377;47.418;18.882;2022-10-17T10:26:00;19.00;88.20
38380;DHT22;38377;47.418;18.882;2022-10-17T10:28:32;19.10;86.80
38380;DHT22;38377;47.418;18.882;2022-10-17T10:31:05;19.20;88.10
38380;DHT22;38377;47.418;18.882;2022-10-17T10:33:34;19.10;85.20
38380;DHT22;38377;47.418;18.882;2022-10-17T10:36:04;18.90;88.00
38380;DHT22;38377;47.418;18.882;2022-10-17T10:38:32;19.10;87.30
38380;DHT22;38377;47.418;18.882;2022-10-17T10:41:03;19.10;86.90
38380;DHT22;38377;47.418;18.882;2022-10-17T10:46:14;19.40;85.50
38380;DHT22;38377;47.418;18.882;2022-10-17T10:48:56;19.60;85.10
38380;DHT22;38377;47.418;18.882;2022-10-17T10:51:36;19.60;85.00
38380;DHT22;38377;47.418;18.882;2022-10-17T10:54:13;19.70;84.30
38380;DHT22;38377;47.418;18.882;2022-10-17T10:56:49;19.80;85.10
38380;DHT22;38377;47.418;18.882;2022-10-17T10:59:22;19.70;83.50
38380;DHT22;38377;47.418;18.882;2022-10-17T11:12:22;19.80;81.70
38380;DHT22;38377;47.418;18.882;2022-10-17T11:17:48;19.70;82.00
38380;DHT22;38377;47.418;18.882;2022-10-17T11:20:27;19.80;81.00
38380;DHT22;38377;47.418;18.882;2022-10-17T11:26:06;19.80;80.60
38380;DHT22;38377;47.418;18.882;2022-10-17T11:28:33;19.80;80.50
38380;DHT22;38377;47.418;18.882;2022-10-17T11:31:15;19.90;81.10
38380;DHT22;38377;47.418;18.882;2022-10-17T11:33:53;20.10;81.60
38380;DHT22;38377;47.418;18.882;2022-10-17T11:36:44;20.10;80.10
38380;DHT22;38377;47.418;18.882;2022-10-17T11:39:15;20.00;80.40
38380;DHT22;38377;47.418;18.882;2022-10-17T11:41:54;20.00;80.10
38380;DHT22;38377;47.418;18.882;2022-10-17T11:44:40;20.00;80.10
38380;DHT22;38377;47.418;18.882;2022-10-17T11:50:15;20.00;79.10
38380;DHT22;38377;47.418;18.882;2022-10-17T11:52:44;19.90;79.60
38380;DHT22;38377;47.418;18.882;2022-10-17T11:55:13;20.10;79.60
38380;DHT22;38377;47.418;18.882;2022-10-17T11:57:45;20.10;80.20
38380;DHT22;38377;47.418;18.882;2022-10-17T12:13:47;19.90;78.70
38380;DHT22;38377;47.418;18.882;2022-10-17T12:21:25;19.90;81.90
38380;DHT22;38377;47.418;18.882;2022-10-17T12:23:52;19.90;81.70
38380;DHT22;38377;47.418;18.882;2022-10-17T12:26:27;20.00;81.60
38380;DHT22;38377;47.418;18.882;2022-10-17T12:28:55;20.10;82.30
38380;DHT22;38377;47.418;18.882;2022-10-17T12:31:24;20.10;79.80
38380;DHT22;38377;47.418;18.882;2022-10-17T12:34:02;20.10;81.10
38380;DHT22;38377;47.418;18.882;2022-10-17T12:46:56;20.20;80.90
38380;DHT22;38377;47.418;18.882;2022-10-17T12:49:44;20.30;81.50
38380;DHT22;38377;47.418;18.882;2022-10-17T12:59:57;20.20;80.40
38380;DHT22;38377;47.418;18.882;2022-10-17T13:02:25;20.20;79.80
38380;DHT22;38377;47.418;18.882;2022-10-17T13:05:04;20.20;79.00
38380;DHT22;38377;47.418;18.882;2022-10-17T13:07:33;20.30;79.20
38380;DHT22;38377;47.418;18.882;2022-10-17T13:09:59;20.30;79.50
38380;DHT22;38377;47.418;18.882;2022-10-17T13:12:31;20.20;78.90
38380;DHT22;38377;47.418;18.882;2022-10-17T13:14:58;20.20;79.30
38380;DHT22;38377;47.418;18.882;2022-10-17T13:17:27;20.20;79.10
38380;DHT22;38377;47.418;18.882;2022-10-17T13:19:54;20.20;78.50
38380;DHT22;38377;47.418;18.882;2022-10-17T13:22:23;20.20;78.30
38380;DHT22;38377;47.418;18.882;2022-10-17T13:24:50;20.30;78.90
38380;DHT22;38377;47.418;18.882;2022-10-17T13:27:30;20.20;78.10
38380;DHT22;38377;47.418;18.882;2022-10-17T13:29:58;20.10;78.90
38380;DHT22;38377;47.418;18.882;2022-10-17T13:32:27;20.10;79.00
38380;DHT22;38377;47.418;18.882;2022-10-17T13:35:13;20.10;78.70
38380;DHT22;38377;47.418;18.882;2022-10-17T13:37:44;20.20;79.90
38380;DHT22;38377;47.418;18.882;2022-10-17T13:40:27;20.20;77.80
38380;DHT22;38377;47.418;18.882;2022-10-17T13:42:56;20.20;78.40
38380;DHT22;38377;47.418;18.882;2022-10-17T13:47:51;20.20;76.50
38380;DHT22;38377;47.418;18.882;2022-10-17T13:50:33;20.10;76.70
38380;DHT22;38377;47.418;18.882;2022-10-17T13:53:38;20.10;78.20
38380;DHT22;38377;47.418;18.882;2022-10-17T13:56:21;20.00;76.60
38380;DHT22;38377;47.418;18.882;2022-10-17T13:58:49;20.00;77.50
38380;DHT22;38377;47.418;18.882;2022-10-17T14:01:16;20.00;78.20
38380;DHT22;38377;47.418;18.882;2022-10-17T14:03:46;20.00;77.70
38380;DHT22;38377;47.418;18.882;2022-10-17T14:06:23;20.00;78.70
38380;DHT22;38377;47.418;18.882;2022-10-17T14:09:06;20.00;77.30
38380;DHT22;38377;47.418;18.882;2022-10-17T14:11:41;19.90;78.50
38380;DHT22;38377;47.418;18.882;2022-10-17T14:14:18;19.90;78.10
38380;DHT22;38377;47.418;18.882;2022-10-17T14:16:45;19.90;78.60
38380;DHT22;38377;47.418;18.882;2022-10-17T14:21:51;19.80;78.00
38380;DHT22;38377;47.418;18.882;2022-10-17T14:26:57;19.80;77.80
38380;DHT22;38377;47.418;18.882;2022-10-17T14:29:48;19.70;78.10
38380;DHT22;38377;47.418;18.882;2022-10-17T14:32:14;19.70;78.70
38380;DHT22;38377;47.418;18.882;2022-10-17T14:34:42;19.70;78.40
38380;DHT22;38377;47.418;18.882;2022-10-17T14:37:41;19.60;79.40
38380;DHT22;38377;47.418;18.882;2022-10-17T14:40:19;19.50;79.10
38380;DHT22;38377;47.418;18.882;2022-10-17T14:42:46;19.50;77.50
38380;DHT22;38377;47.418;18.882;2022-10-17T14:45:16;19.50;78.00
38380;DHT22;38377;47.418;18.882;2022-10-17T14:47:48;19.40;79.30
38380;DHT22;38377;47.418;18.882;2022-10-17T14:52:39;19.40;77.90
38380;DHT22;38377;47.418;18.882;2022-10-17T14:55:24;19.40;79.40
38380;DHT22;38377;47.418;18.882;2022-10-17T14:57:50;19.30;78.10
38380;DHT22;38377;47.418;18.882;2022-10-17T15:00:18;19.30;78.00
38380;DHT22;38377;47.418;18.882;2022-10-17T15:02:45;19.20;79.00
38380;DHT22;38377;47.418;18.882;2022-10-17T15:05:12;19.20;79.20
38380;DHT22;38377;47.418;18.882;2022-10-17T15:07:38;19.10;79.20
38380;DHT22;38377;47.418;18.882;2022-10-17T15:10:04;19.10;78.90
38380;DHT22;38377;47.418;18.882;2022-10-17T15:12:30;19.10;79.40
38380;DHT22;38377;47.418;18.882;2022-10-17T15:14:57;19.00;79.10
38380;DHT22;38377;47.418;18.882;2022-10-17T15:17:29;18.90;79.80
38380;DHT22;38377;47.418;18.882;2022-10-17T15:19:56;18.90;80.40
38380;DHT22;38377;47.418;18.882;2022-10-17T15:22:22;18.80;81.40
38380;DHT22;38377;47.418;18.882;2022-10-17T15:24:48;18.60;82.00
38380;DHT22;38377;47.418;18.882;2022-10-17T15:27:16;18.60;81.20
38380;DHT22;38377;47.418;18.882;2022-10-17T15:29:42;18.50;82.00
38380;DHT22;38377;47.418;18.882;2022-10-17T15:32:08;18.40;82.60
38380;DHT22;38377;47.418;18.882;2022-10-17T15:34:34;18.30;82.60
38380;DHT22;38377;47.418;18.882;2022-10-17T15:37:00;18.10;84.60
38380;DHT22;38377;47.418;18.882;2022-10-17T15:39:26;18.00;84.70
38380;DHT22;38377;47.418;18.882;2022-10-17T15:41:51;17.90;85.50
38380;DHT22;38377;47.418;18.882;2022-10-17T15:44:17;17.70;86.90
38380;DHT22;38377;47.418;18.882;2022-10-17T15:46:43;17.50;88.20
38380;DHT22;38377;47.418;18.882;2022-10-17T15:49:17;17.20;90.00
38380;DHT22;38377;47.418;18.882;2022-10-17T15:51:44;17.00;91.40
38380;DHT22;38377;47.418;18.882;2022-10-17T15:54:10;16.80;91.30
38380;DHT22;38377;47.418;18.882;2022-10-17T15:56:42;16.60;91.50
38380;DHT22;38377;47.418;18.882;2022-10-17T15:59:14;16.40;91.90
38380;DHT22;38377;47.418;18.882;2022-10-17T16:01:42;16.10;93.10
38380;DHT22;38377;47.418;18.882;2022-10-17T16:04:10;15.90;93.90
38380;DHT22;38377;47.418;18.882;2022-10-17T16:06:39;15.70;94.00
38380;DHT22;38377;47.418;18.882;2022-10-17T16:09:04;15.60;94.60
38380;DHT22;38377;47.418;18.882;2022-10-17T16:11:34;15.40;95.30
38380;DHT22;38377;47.418;18.882;2022-10-17T16:14:02;15.20;96.20
38380;DHT22;38377;47.418;18.882;2022-10-17T16:16:29;15.00;96.90
38380;DHT22;38377;47.418;18.882;2022-10-17T16:18:54;14.90;97.60
38380;DHT22;38377;47.418;18.882;2022-10-17T16:21:24;14.70;98.30
38380;DHT22;38377;47.418;18.882;2022-10-17T16:23:50;14.60;98.80
38380;DHT22;38377;47.418;18.882;2022-10-17T16:26:16;14.40;99.40
38380;DHT22;38377;47.418;18.882;2022-10-17T16:28:43;14.30;99.90
38380;DHT22;38377;47.418;18.882;2022-10-17T16:33:51;14.10;99.90
38380;DHT22;38377;47.418;18.882;2022-10-17T16:36:17;14.00;99.90
38380;DHT22;38377;47.418;18.882;2022-10-17T16:38:43;13.90;99.90
38380;DHT22;38377;47.418;18.882;2022-10-17T16:41:19;13.80;99.90
38380;DHT22;38377;47.418;18.882;2022-10-17T16:43:47;13.70;99.90
38380;DHT22;38377;47.418;18.882;2022-10-17T16:46:13;13.60;99.90
38380;DHT22;38377;47.418;18.882;2022-10-17T16:48:39;13.50;99.90
38380;DHT22;38377;47.418;18.882;2022-10-17T16:51:04;13.40;99.90
38380;DHT22;38377;47.418;18.882;2022-10-17T16:53:30;13.30;99.90
38380;DHT22;38377;47.418;18.882;2022-10-17T16:56:03;13.30;99.90
38380;DHT22;38377;47.418;18.882;2022-10-17T16:58:29;13.20;99.90
38380;DHT22;38377;47.418;18.882;2022-10-17T17:01:04;13.10;99.90
38380;DHT22;38377;47.418;18.882;2022-10-17T17:03:29;13.00;99.90
38380;DHT22;38377;47.418;18.882;2022-10-17T17:05:58;12.90;99.90
38380;DHT22;38377;47.418;18.882;2022-10-17T17:08:24;12.80;99.90
38380;DHT22;38377;47.418;18.882;2022-10-17T17:10:50;12.80;99.90
38380;DHT22;38377;47.418;18.882;2022-10-17T17:13:16;12.70;99.90
38380;DHT22;38377;47.418;18.882;2022-10-17T17:15:42;12.70;99.90
38380;DHT22;38377;47.418;18.882;2022-10-17T17:18:07;12.60;99.90
38380;DHT22;38377;47.418;18.882;2022-10-17T17:20:34;12.50;99.90
38380;DHT22;38377;47.418;18.882;2022-10-17T17:23:00;12.50;99.90
38380;DHT22;38377;47.418;18.882;2022-10-17T17:25:25;12.40;99.90
38380;DHT22;38377;47.418;18.882;2022-10-17T17:27:51;12.40;99.90
38380;DHT22;38377;47.418;18.882;2022-10-17T17:30:20;12.30;99.90
38380;DHT22;38377;47.418;18.882;2022-10-17T17:32:45;12.30;99.90
38380;DHT22;38377;47.418;18.882;2022-10-17T17:35:11;12.20;99.90
38380;DHT22;38377;47.418;18.882;2022-10-17T17:37:37;12.10;99.90
38380;DHT22;38377;47.418;18.882;2022-10-17T17:40:02;12.10;99.90
38380;DHT22;38377;47.418;18.882;2022-10-17T17:42:30;12.00;99.90
38380;DHT22;38377;47.418;18.882;2022-10-17T17:44:55;12.00;99.90
38380;DHT22;38377;47.418;18.882;2022-10-17T17:47:21;11.90;99.90
38380;DHT22;38377;47.418;18.882;2022-10-17T17:49:47;11.80;99.90
38380;DHT22;38377;47.418;18.882;2022-10-17T17:52:12;11.80;99.90
38380;DHT22;38377;47.418;18.882;2022-10-17T17:54:38;11.80;99.90